Time;durP1;ratioP1;P1;durP2;ratioP2;P2;SDS_P1;SDS_P2;PMS_P1;PMS_P2;Temp;Humidity;BMP_temperature;BMP_pressure;BME280_temperature;BME280_humidity;BME280_pressure;Samples;Min_cycle;Max_cycle;Signal;HPM_P1;HPM_P2
2022/12/10 00:01:43;;;;;;;0.10;0.10;;;1.80;99.90;;;;;;5053053;28;20213;-66
2022/12/10 00:04:10;;;;;;;0.00;0.00;;;1.80;99.90;;;;;;5047540;28;20239;-66
2022/12/10 00:06:37;;;;;;;0.10;0.10;;;1.80;99.90;;;;;;5053314;28;20174;-66
2022/12/10 00:09:04;;;;;;;0.07;0.07;;;1.80;99.90;;;;;;5053519;28;20181;-66
2022/12/10 00:11:30;;;;;;;0.23;0.23;;;1.70;99.90;;;;;;5053225;28;20370;-66
2022/12/10 00:13:57;;;;;;;0.10;0.10;;;1.70;99.90;;;;;;5052064;28;20182;-66
2022/12/10 00:16:24;;;;;;;0.00;0.00;;;1.70;99.90;;;;;;5052084;28;20269;-65
2022/12/10 00:18:51;;;;;;;0.22;0.22;;;1.70;99.90;;;;;;5053116;28;20204;-66
2022/12/10 00:21:20;;;;;;;0.00;0.00;;;1.80;99.90;;;;;;5053269;28;20188;-65
2022/12/10 00:23:46;;;;;;;0.52;0.52;;;1.80;99.90;;;;;;5052970;28;20189;-66
2022/12/10 00:26:29;;;;;;;0.20;0.20;;;1.80;99.90;;;;;;5053216;28;20192;-66
2022/12/10 00:28:55;;;;;;;0.33;0.30;;;1.70;99.90;;;;;;5053038;28;20192;-66
2022/12/10 00:31:25;;;;;;;0.00;0.00;;;1.70;99.90;;;;;;5053079;28;20745;-66
2022/12/10 00:33:53;;;;;;;0.23;0.23;;;1.70;99.90;;;;;;5052853;28;20189;-66
2022/12/10 00:36:21;;;;;;;0.10;0.10;;;1.70;99.90;;;;;;5053039;28;20304;-65
2022/12/10 00:38:48;;;;;;;0.40;0.40;;;1.70;99.90;;;;;;5052882;28;20301;-66
2022/12/10 00:41:15;;;;;;;0.30;0.30;;;1.70;99.90;;;;;;5052944;28;20184;-66
2022/12/10 00:43:41;;;;;;;0.32;0.32;;;1.80;99.90;;;;;;5052827;28;20243;-66
2022/12/10 00:46:06;;;;;;;0.10;0.10;;;1.70;99.90;;;;;;5052842;28;20204;-66
2022/12/10 00:48:32;;;;;;;0.03;0.03;;;1.80;99.90;;;;;;5052724;28;20487;-65
2022/12/10 00:51:05;;;;;;;0.10;0.10;;;1.80;99.90;;;;;;5052321;28;20182;-66
2022/12/10 00:53:32;;;;;;;0.37;0.37;;;1.80;99.90;;;;;;5051953;28;20555;-66
2022/12/10 00:55:58;;;;;;;0.20;0.20;;;1.80;99.90;;;;;;5051061;28;20210;-65
2022/12/10 00:58:28;;;;;;;0.13;0.13;;;1.80;99.90;;;;;;5052257;28;20197;-65
2022/12/10 01:00:53;;;;;;;0.00;0.00;;;1.80;99.90;;;;;;5052397;28;20637;-65
2022/12/10 01:03:19;;;;;;;0.10;0.10;;;1.80;99.90;;;;;;5051138;28;20227;-66
2022/12/10 01:05:44;;;;;;;0.10;0.10;;;1.80;99.90;;;;;;5032478;28;20178;-65
2022/12/10 01:08:10;;;;;;;0.03;0.03;;;1.80;99.90;;;;;;5036983;28;20530;-65
2022/12/10 01:10:36;;;;;;;0.00;0.00;;;1.90;99.90;;;;;;5051850;28;20229;-66
2022/12/10 01:13:02;;;;;;;0.05;0.05;;;1.90;99.90;;;;;;5051929;28;20186;-65
2022/12/10 01:15:28;;;;;;;0.05;0.05;;;1.90;99.90;;;;;;5052135;28;20189;-65
2022/12/10 01:17:53;;;;;;;0.45;0.45;;;1.90;99.90;;;;;;5051369;28;20181;-65
2022/12/10 01:20:19;;;;;;;0.00;0.00;;;1.90;99.90;;;;;;5051983;28;20656;-65
2022/12/10 01:22:44;;;;;;;0.00;0.00;;;1.90;99.90;;;;;;5052056;28;20173;-65
2022/12/10 01:25:10;;;;;;;0.00;0.00;;;1.90;99.90;;;;;;5052010;28;20277;-65
2022/12/10 01:27:35;;;;;;;0.30;0.30;;;1.90;99.90;;;;;;5051914;28;20169;-66
2022/12/10 01:30:01;;;;;;;0.10;0.10;;;1.90;99.90;;;;;;5051773;28;20181;-65
2022/12/10 01:32:26;;;;;;;0.10;0.10;;;1.90;99.90;;;;;;5052085;28;20629;-65
2022/12/10 01:34:52;;;;;;;0.03;0.03;;;1.80;99.90;;;;;;5051329;28;20188;-65
2022/12/10 01:37:17;;;;;;;0.00;0.00;;;1.80;99.90;;;;;;5051843;28;20515;-65
2022/12/10 01:39:43;;;;;;;0.20;0.20;;;1.80;99.90;;;;;;5051848;28;20210;-66
2022/12/10 01:42:11;;;;;;;0.00;0.00;;;1.80;99.90;;;;;;5051815;28;20689;-65
2022/12/10 01:44:43;;;;;;;0.00;0.00;;;1.80;99.90;;;;;;5051734;28;20589;-66
2022/12/10 01:47:09;;;;;;;0.00;0.00;;;1.90;99.90;;;;;;5051986;28;20201;-66
2022/12/10 01:49:37;;;;;;;0.00;0.00;;;1.80;99.90;;;;;;5051830;28;20172;-66
2022/12/10 01:52:05;;;;;;;0.10;0.10;;;1.80;99.90;;;;;;5051616;28;20182;-65
2022/12/10 01:54:37;;;;;;;0.10;0.10;;;1.80;99.90;;;;;;5051501;28;20775;-65
2022/12/10 01:57:09;;;;;;;0.10;0.10;;;1.80;99.90;;;;;;5039058;28;20247;-65
2022/12/10 01:59:36;;;;;;;0.65;0.65;;;1.80;99.90;;;;;;5043375;28;20323;-65
2022/12/10 02:02:26;;;;;;;0.10;0.10;;;1.80;99.90;;;;;;5051475;28;20247;-65
2022/12/10 02:05:06;;;;;;;0.10;0.10;;;1.80;99.90;;;;;;5050575;28;20208;-65
2022/12/10 02:08:03;;;;;;;0.13;0.13;;;1.80;99.90;;;;;;5055515;28;20648;-65
2022/12/10 02:10:45;;;;;;;0.00;0.00;;;1.80;99.90;;;;;;5046434;28;20240;-65
2022/12/10 02:13:29;;;;;;;0.00;0.00;;;1.80;99.90;;;;;;5055010;28;20169;-65
2022/12/10 02:16:07;;;;;;;0.10;0.10;;;1.80;99.90;;;;;;5054809;28;20181;-65
2022/12/10 02:18:38;;;;;;;0.00;0.00;;;1.80;99.90;;;;;;5054913;28;20265;-65
2022/12/10 02:21:12;;;;;;;0.20;0.20;;;1.80;99.90;;;;;;5055101;28;20181;-65
2022/12/10 02:23:54;;;;;;;0.13;0.13;;;1.80;99.90;;;;;;5055376;28;20181;-65
2022/12/10 02:26:32;;;;;;;0.00;0.00;;;1.80;99.90;;;;;;5055579;28;20335;-65
2022/12/10 02:29:16;;;;;;;0.00;0.00;;;1.80;99.90;;;;;;5042380;28;20333;-65
2022/12/10 02:31:47;;;;;;;0.20;0.20;;;1.70;99.90;;;;;;5047000;28;20653;-66
2022/12/10 02:34:14;;;;;;;0.00;0.00;;;1.70;99.90;;;;;;5054465;28;20213;-65
2022/12/10 02:36:43;;;;;;;0.17;0.17;;;1.70;99.90;;;;;;5054851;28;20178;-65
2022/12/10 02:39:14;;;;;;;0.00;0.00;;;1.80;99.90;;;;;;5054863;28;20558;-65
2022/12/10 02:41:50;;;;;;;0.00;0.00;;;1.70;99.90;;;;;;5054962;28;20701;-65
2022/12/10 02:44:18;;;;;;;0.13;0.13;;;1.70;99.90;;;;;;5055272;28;20261;-65
2022/12/10 02:46:47;;;;;;;0.10;0.10;;;1.70;99.90;;;;;;5054816;28;20178;-65
2022/12/10 02:49:15;;;;;;;0.63;0.63;;;1.70;99.90;;;;;;5054987;28;20178;-65
2022/12/10 02:51:41;;;;;;;0.10;0.10;;;1.70;99.90;;;;;;5054868;28;20540;-65
2022/12/10 02:54:34;;;;;;;0.03;0.03;;;1.70;99.90;;;;;;5055108;28;20252;-65
2022/12/10 02:57:07;;;;;;;0.17;0.17;;;1.70;99.90;;;;;;5054828;28;20193;-65
2022/12/10 02:59:59;;;;;;;0.00;0.00;;;1.70;99.90;;;;;;5034857;28;20371;-66
2022/12/10 03:03:03;;;;;;;0.03;0.03;;;1.70;99.90;;;;;;5047207;28;20192;-66
2022/12/10 03:05:35;;;;;;;0.10;0.10;;;1.70;99.90;;;;;;5054473;28;20588;-66
2022/12/10 03:08:14;;;;;;;0.00;0.00;;;1.70;99.90;;;;;;5054703;28;20184;-66
2022/12/10 03:10:48;;;;;;;0.00;0.00;;;1.70;99.90;;;;;;5054380;28;20225;-66
2022/12/10 03:13:17;;;;;;;0.50;0.50;;;1.70;99.90;;;;;;5054591;28;20629;-65
2022/12/10 03:15:44;;;;;;;0.10;0.10;;;1.60;99.90;;;;;;5054313;28;20649;-65
2022/12/10 03:18:12;;;;;;;0.00;0.00;;;1.70;99.90;;;;;;5054433;28;20633;-66
2022/12/10 03:20:41;;;;;;;0.00;0.00;;;1.60;99.90;;;;;;5052798;28;20276;-66
2022/12/10 03:23:10;;;;;;;0.77;0.50;;;1.60;99.90;;;;;;5053623;28;20177;-66
2022/12/10 03:25:38;;;;;;;0.10;0.10;;;1.60;99.90;;;;;;5053845;28;20192;-66
2022/12/10 03:28:06;;;;;;;0.00;0.00;;;1.60;99.90;;;;;;5052240;28;20264;-66
2022/12/10 03:30:33;;;;;;;0.23;0.23;;;1.50;99.90;;;;;;5053660;28;20637;-66
2022/12/10 03:32:59;;;;;;;0.20;0.20;;;1.50;99.90;;;;;;5053919;28;20182;-66
2022/12/10 03:35:26;;;;;;;0.00;0.00;;;1.50;99.90;;;;;;5053973;28;20292;-66
2022/12/10 03:37:51;;;;;;;0.00;0.00;;;1.50;99.90;;;;;;5053955;28;20173;-65
2022/12/10 03:40:21;;;;;;;0.10;0.10;;;1.50;99.90;;;;;;5053843;28;20225;-66
2022/12/10 03:42:47;;;;;;;0.00;0.00;;;1.50;99.90;;;;;;5053958;28;20180;-66
2022/12/10 03:45:13;;;;;;;0.10;0.10;;;1.50;99.90;;;;;;5053906;28;20263;-66
2022/12/10 03:47:40;;;;;;;0.20;0.20;;;1.50;99.90;;;;;;5053611;28;20610;-66
2022/12/10 03:50:06;;;;;;;0.07;0.07;;;1.50;99.90;;;;;;5053994;28;20181;-66
2022/12/10 03:52:31;;;;;;;0.00;0.00;;;1.40;99.90;;;;;;5052312;28;20227;-66
2022/12/10 03:54:57;;;;;;;0.93;0.47;;;1.40;99.90;;;;;;5053855;28;20250;-66
2022/12/10 03:57:23;;;;;;;0.00;0.00;;;1.40;99.90;;;;;;5044733;28;20636;-66
2022/12/10 03:59:48;;;;;;;0.00;0.00;;;1.40;99.90;;;;;;5053698;28;20302;-66
2022/12/10 04:02:14;;;;;;;1.27;0.57;;;1.40;99.90;;;;;;5053410;28;20178;-66
2022/12/10 04:04:39;;;;;;;0.00;0.00;;;1.40;99.90;;;;;;5053339;28;20648;-66
2022/12/10 04:07:05;;;;;;;0.00;0.00;;;1.40;99.90;;;;;;5052398;28;20655;-66
2022/12/10 04:09:30;;;;;;;0.13;0.13;;;1.40;99.90;;;;;;5053326;28;20181;-66
2022/12/10 04:12:00;;;;;;;0.00;0.00;;;1.40;99.90;;;;;;5051882;28;20271;-66
2022/12/10 04:17:11;;;;;;;0.52;0.35;;;1.40;99.90;;;;;;5053447;28;20192;-66
2022/12/10 04:19:36;;;;;;;0.15;0.15;;;1.40;99.90;;;;;;5052561;28;20236;-66
2022/12/10 04:27:37;;;;;;;0.20;0.17;;;1.40;99.90;;;;;;5051336;28;20208;-66
2022/12/10 04:30:05;;;;;;;0.20;0.20;;;1.40;99.90;;;;;;5052650;28;20173;-65
2022/12/10 04:32:31;;;;;;;0.00;0.00;;;1.40;99.90;;;;;;5052523;28;20193;-66
2022/12/10 04:34:57;;;;;;;0.00;0.00;;;1.40;99.90;;;;;;5052578;28;20713;-66
2022/12/10 04:37:24;;;;;;;0.00;0.00;;;1.40;99.90;;;;;;5051705;28;20193;-66
2022/12/10 04:39:50;;;;;;;0.10;0.10;;;1.40;99.90;;;;;;5052842;28;20672;-66
2022/12/10 04:42:17;;;;;;;0.00;0.00;;;1.50;99.90;;;;;;5053158;28;20178;-65
2022/12/10 04:44:42;;;;;;;0.10;0.10;;;1.50;99.90;;;;;;5052046;28;20209;-66
2022/12/10 04:47:09;;;;;;;0.00;0.00;;;1.50;99.90;;;;;;5052699;28;20213;-66
2022/12/10 04:49:35;;;;;;;0.00;0.00;;;1.50;99.90;;;;;;5052526;28;20169;-66
2022/12/10 04:52:02;;;;;;;0.10;0.10;;;1.50;99.90;;;;;;5052516;28;20190;-65
2022/12/10 04:54:27;;;;;;;0.00;0.00;;;1.50;99.90;;;;;;5051179;28;20178;-65
2022/12/10 04:56:53;;;;;;;0.00;0.00;;;1.50;99.90;;;;;;5052469;28;20247;-65
2022/12/10 04:59:19;;;;;;;0.10;0.10;;;1.50;99.90;;;;;;5052417;28;20216;-65
2022/12/10 05:01:44;;;;;;;0.20;0.20;;;1.50;99.90;;;;;;5052128;28;20174;-65
2022/12/10 05:04:13;;;;;;;0.00;0.00;;;1.50;99.90;;;;;;5044446;28;20185;-65
2022/12/10 05:06:39;;;;;;;0.30;0.30;;;1.50;99.90;;;;;;5049589;28;20166;-66
2022/12/10 05:09:05;;;;;;;0.10;0.10;;;1.50;99.90;;;;;;5052204;28;20188;-65
2022/12/10 05:11:31;;;;;;;0.00;0.00;;;1.60;99.90;;;;;;5052267;28;20257;-65
2022/12/10 05:13:57;;;;;;;0.13;0.13;;;1.50;99.90;;;;;;5051814;28;20222;-65
2022/12/10 05:16:25;;;;;;;0.20;0.20;;;1.50;99.90;;;;;;5052116;28;20213;-65
2022/12/10 05:18:52;;;;;;;0.15;0.15;;;1.50;99.90;;;;;;5052032;28;20210;-65
2022/12/10 05:21:19;;;;;;;0.00;0.00;;;1.50;99.90;;;;;;5051985;28;20220;-64
2022/12/10 05:23:47;;;;;;;2.50;0.80;;;1.50;99.90;;;;;;5051994;28;20196;-65
2022/12/10 05:26:19;;;;;;;0.20;0.20;;;1.50;99.90;;;;;;5052208;28;20284;-65
2022/12/10 05:28:47;;;;;;;0.00;0.00;;;1.50;99.90;;;;;;5051871;28;20193;-65
2022/12/10 05:31:25;;;;;;;0.10;0.10;;;1.50;99.90;;;;;;5051976;28;20169;-65
2022/12/10 05:33:52;;;;;;;0.87;0.87;;;1.50;99.90;;;;;;5050736;28;20184;-65
2022/12/10 05:36:20;;;;;;;0.00;0.00;;;1.60;99.90;;;;;;5051835;28;20177;-65
2022/12/10 05:38:46;;;;;;;0.00;0.00;;;1.50;99.90;;;;;;5051685;28;20193;-65
2022/12/10 05:41:15;;;;;;;0.13;0.13;;;1.60;99.90;;;;;;5050185;28;20542;-65
2022/12/10 05:43:42;;;;;;;0.20;0.20;;;1.50;99.90;;;;;;5050470;28;20180;-65
2022/12/10 05:46:11;;;;;;;0.28;0.22;;;1.50;99.90;;;;;;5051595;28;20178;-65
2022/12/10 05:48:37;;;;;;;0.43;0.43;;;1.50;99.90;;;;;;5051132;28;20595;-65
2022/12/10 05:51:07;;;;;;;0.00;0.00;;;1.50;99.90;;;;;;5050978;28;20181;-65
2022/12/10 05:53:33;;;;;;;0.10;0.10;;;1.50;99.90;;;;;;5050856;28;20193;-66
2022/12/10 05:56:08;;;;;;;0.00;0.00;;;1.50;99.90;;;;;;5032104;28;20198;-65
2022/12/10 05:58:34;;;;;;;0.00;0.00;;;1.50;99.90;;;;;;5047459;28;20212;-66
2022/12/10 06:01:04;;;;;;;0.00;0.00;;;1.50;99.90;;;;;;5051409;28;20196;-66
2022/12/10 06:03:30;;;;;;;0.10;0.10;;;1.50;99.90;;;;;;5051907;28;20201;-65
2022/12/10 06:05:56;;;;;;;0.00;0.00;;;1.50;99.90;;;;;;5051590;28;20663;-65
2022/12/10 06:08:21;;;;;;;0.20;0.20;;;1.50;99.90;;;;;;5051745;28;20185;-65
2022/12/10 06:10:47;;;;;;;0.07;0.07;;;1.50;99.90;;;;;;5051315;28;20274;-65
2022/12/10 06:13:12;;;;;;;0.00;0.00;;;1.50;99.90;;;;;;5051766;28;20185;-65
2022/12/10 06:15:40;;;;;;;0.10;0.10;;;1.50;99.90;;;;;;5051227;28;20262;-66
2022/12/10 06:18:06;;;;;;;0.87;0.87;;;1.50;99.90;;;;;;5051653;28;20177;-65
2022/12/10 06:20:31;;;;;;;0.10;0.10;;;1.50;99.90;;;;;;5051397;28;20238;-65
2022/12/10 06:22:57;;;;;;;0.00;0.00;;;1.50;99.90;;;;;;5051653;28;20529;-65
2022/12/10 06:25:23;;;;;;;0.00;0.00;;;1.50;99.90;;;;;;5051340;28;20189;-65
2022/12/10 06:27:49;;;;;;;0.38;0.38;;;1.50;99.90;;;;;;5050986;28;20186;-65
2022/12/10 06:30:15;;;;;;;0.27;0.27;;;1.50;99.90;;;;;;5051634;28;20235;-65
2022/12/10 06:32:42;;;;;;;0.20;0.20;;;1.50;99.90;;;;;;5050152;28;20295;-65
2022/12/10 06:35:08;;;;;;;0.00;0.00;;;1.40;99.90;;;;;;5051361;28;20170;-65
2022/12/10 06:37:34;;;;;;;1.07;0.53;;;1.40;99.90;;;;;;5051476;28;20632;-65
2022/12/10 06:39:59;;;;;;;0.20;0.20;;;1.40;99.90;;;;;;5051185;28;20280;-65
2022/12/10 06:42:25;;;;;;;0.77;0.77;;;1.50;99.90;;;;;;5051308;28;20235;-65
2022/12/10 06:44:50;;;;;;;0.00;0.00;;;1.50;99.90;;;;;;5050967;28;20296;-65
2022/12/10 06:47:16;;;;;;;0.05;0.05;;;1.50;99.90;;;;;;5051228;28;20236;-65
2022/12/10 06:49:42;;;;;;;0.10;0.10;;;1.50;99.90;;;;;;5051300;28;20185;-65
2022/12/10 06:52:07;;;;;;;0.10;0.10;;;1.50;99.90;;;;;;5054207;28;20178;-65
2022/12/10 06:54:33;;;;;;;0.00;0.00;;;1.50;99.90;;;;;;5054837;28;20189;-66
2022/12/10 06:56:58;;;;;;;0.00;0.00;;;1.50;99.90;;;;;;5054008;28;20190;-65
2022/12/10 06:59:24;;;;;;;0.00;0.00;;;1.40;99.90;;;;;;5053525;28;20213;-66
2022/12/10 07:01:50;;;;;;;0.00;0.00;;;1.50;99.90;;;;;;5054383;28;20180;-65
2022/12/10 07:04:16;;;;;;;0.00;0.00;;;1.40;99.90;;;;;;5052270;28;20190;-67
2022/12/10 07:06:43;;;;;;;1.50;0.40;;;1.40;99.90;;;;;;5048854;28;20181;-66
2022/12/10 07:09:09;;;;;;;0.00;0.00;;;1.40;99.90;;;;;;5054410;28;20178;-66
2022/12/10 07:11:35;;;;;;;0.10;0.10;;;1.40;99.90;;;;;;5054619;28;20233;-66
2022/12/10 07:14:01;;;;;;;0.10;0.10;;;1.40;99.90;;;;;;5054170;28;20181;-66
2022/12/10 07:16:31;;;;;;;0.00;0.00;;;1.40;99.90;;;;;;5054641;28;20181;-66
2022/12/10 07:18:59;;;;;;;0.13;0.13;;;1.50;99.90;;;;;;5053895;28;20236;-66
2022/12/10 07:21:31;;;;;;;0.00;0.00;;;1.50;99.90;;;;;;5054390;28;20199;-67
2022/12/10 07:24:02;;;;;;;0.20;0.20;;;1.50;99.90;;;;;;5054024;28;20209;-67
2022/12/10 07:26:29;;;;;;;0.00;0.00;;;1.50;99.90;;;;;;5054207;28;20188;-67
2022/12/10 07:28:54;;;;;;;0.00;0.00;;;1.50;99.90;;;;;;5054019;28;20247;-68
2022/12/10 07:31:22;;;;;;;0.03;0.03;;;1.60;99.90;;;;;;5053781;28;20185;-67
2022/12/10 07:33:48;;;;;;;0.28;0.28;;;1.60;99.90;;;;;;5054068;28;20585;-67
2022/12/10 07:36:14;;;;;;;0.00;0.00;;;1.60;99.90;;;;;;5054406;28;20182;-67
2022/12/10 07:38:40;;;;;;;0.00;0.00;;;1.60;99.90;;;;;;5053658;28;20250;-67
2022/12/10 07:41:08;;;;;;;0.43;0.43;;;1.60;99.90;;;;;;5054125;28;20181;-67
2022/12/10 07:43:39;;;;;;;0.10;0.10;;;1.60;99.90;;;;;;5053873;28;20182;-67
2022/12/10 07:46:09;;;;;;;0.23;0.20;;;1.60;99.90;;;;;;5053072;28;20672;-69
2022/12/10 07:48:38;;;;;;;0.10;0.10;;;1.60;99.90;;;;;;5053854;28;20181;-68
2022/12/10 07:51:04;;;;;;;0.00;0.00;;;1.60;99.90;;;;;;5053922;28;20209;-68
2022/12/10 07:53:31;;;;;;;0.47;0.47;;;1.70;99.90;;;;;;5053317;28;20216;-68
2022/12/10 07:55:56;;;;;;;0.20;0.20;;;1.70;99.90;;;;;;5053152;28;20181;-71
2022/12/10 07:58:22;;;;;;;0.10;0.10;;;1.70;99.90;;;;;;5052867;28;20186;-69
2022/12/10 08:00:47;;;;;;;0.40;0.40;;;1.70;99.90;;;;;;5053193;28;20185;-65
2022/12/10 08:03:13;;;;;;;0.00;0.00;;;1.80;99.90;;;;;;5056606;28;20217;-68
2022/12/10 08:05:39;;;;;;;0.05;0.05;;;1.80;99.90;;;;;;5062506;28;20185;-69
2022/12/10 08:08:05;;;;;;;0.00;0.00;;;1.80;99.90;;;;;;5054537;28;20177;-69
2022/12/10 08:10:33;;;;;;;0.03;0.03;;;1.80;99.90;;;;;;5052947;28;20221;-69
2022/12/10 08:12:59;;;;;;;0.10;0.10;;;1.80;99.90;;;;;;5053085;28;20196;-70
2022/12/10 08:15:24;;;;;;;0.08;0.08;;;1.80;99.90;;;;;;5053404;28;20181;-71
2022/12/10 08:17:51;;;;;;;0.25;0.25;;;1.80;99.90;;;;;;5053191;28;20549;-68
2022/12/10 08:20:16;;;;;;;0.20;0.20;;;1.80;99.90;;;;;;5052794;28;20681;-68
2022/12/10 08:22:42;;;;;;;0.00;0.00;;;1.80;99.90;;;;;;5052692;28;20188;-69
2022/12/10 08:25:07;;;;;;;0.00;0.00;;;1.90;99.90;;;;;;5052702;28;20207;-69
2022/12/10 08:27:33;;;;;;;0.00;0.00;;;1.90;99.90;;;;;;5052832;28;20539;-66
2022/12/10 08:29:58;;;;;;;0.03;0.03;;;1.90;99.90;;;;;;5053212;28;20193;-66
2022/12/10 08:32:24;;;;;;;0.10;0.10;;;1.90;99.90;;;;;;5052672;28;20201;-66
2022/12/10 08:34:49;;;;;;;0.00;0.00;;;2.00;99.90;;;;;;5052232;28;21360;-66
2022/12/10 08:37:15;;;;;;;0.22;0.22;;;2.00;99.90;;;;;;5052800;28;20165;-66
2022/12/10 08:39:41;;;;;;;0.00;0.00;;;2.10;99.90;;;;;;5052895;28;20564;-66
2022/12/10 08:42:06;;;;;;;0.00;0.00;;;2.10;99.90;;;;;;5053013;28;20180;-65
2022/12/10 08:44:32;;;;;;;0.13;0.13;;;2.20;99.90;;;;;;5052662;28;20189;-66
2022/12/10 08:46:57;;;;;;;0.20;0.20;;;2.20;99.90;;;;;;5052536;28;20173;-66
2022/12/10 08:49:23;;;;;;;0.07;0.07;;;2.30;99.90;;;;;;5052760;28;20173;-66
2022/12/10 08:51:49;;;;;;;0.10;0.10;;;2.30;99.90;;;;;;5052515;28;20622;-66
2022/12/10 08:54:14;;;;;;;0.00;0.00;;;2.40;99.90;;;;;;5052694;28;20181;-66
2022/12/10 08:56:40;;;;;;;0.17;0.17;;;2.40;99.90;;;;;;5043811;28;20188;-66
2022/12/10 08:59:06;;;;;;;0.03;0.03;;;2.50;99.90;;;;;;5052448;28;20235;-66
2022/12/10 09:01:32;;;;;;;0.00;0.00;;;2.60;99.90;;;;;;5052707;28;20173;-66
2022/12/10 09:03:58;;;;;;;0.32;0.32;;;2.60;99.90;;;;;;5051494;28;20247;-66
2022/12/10 09:06:24;;;;;;;0.25;0.25;;;2.70;99.90;;;;;;5052415;28;20193;-67
2022/12/10 09:08:50;;;;;;;0.20;0.20;;;2.70;99.90;;;;;;5051571;28;20200;-67
2022/12/10 09:11:19;;;;;;;0.10;0.10;;;2.60;99.90;;;;;;5052117;28;20703;-67
2022/12/10 09:13:45;;;;;;;0.40;0.40;;;2.70;99.90;;;;;;5051842;28;20231;-67
2022/12/10 09:16:11;;;;;;;0.00;0.00;;;2.60;99.90;;;;;;5052205;28;20190;-67
2022/12/10 09:18:37;;;;;;;0.00;0.00;;;2.50;99.90;;;;;;5051494;28;20236;-66
2022/12/10 09:21:07;;;;;;;0.05;0.05;;;2.50;99.90;;;;;;5036306;28;20182;-66
2022/12/10 09:23:33;;;;;;;0.10;0.10;;;2.50;99.90;;;;;;5051298;28;20177;-67
2022/12/10 09:25:59;;;;;;;0.00;0.00;;;2.50;99.90;;;;;;5059053;28;20180;-67
2022/12/10 09:28:25;;;;;;;0.00;0.00;;;2.60;99.90;;;;;;5062911;28;20226;-67
2022/12/10 09:30:58;;;;;;;0.43;0.20;;;2.70;99.90;;;;;;5051765;28;20178;-66
2022/12/10 09:33:25;;;;;;;0.00;0.00;;;2.70;99.90;;;;;;5050670;28;20169;-66
2022/12/10 09:35:50;;;;;;;0.00;0.00;;;2.80;99.90;;;;;;5051919;28;20185;-66
2022/12/10 09:38:16;;;;;;;0.00;0.00;;;2.80;99.90;;;;;;5051739;28;20177;-67
2022/12/10 09:40:48;;;;;;;0.00;0.00;;;2.80;99.90;;;;;;5051674;28;20193;-66
2022/12/10 09:43:27;;;;;;;0.08;0.08;;;2.80;99.90;;;;;;5051951;28;20178;-67
2022/12/10 09:46:05;;;;;;;0.08;0.08;;;2.80;99.90;;;;;;5051365;28;20177;-67
2022/12/10 09:48:52;;;;;;;0.25;0.25;;;2.80;99.90;;;;;;5051720;28;20181;-67
2022/12/10 09:51:33;;;;;;;0.20;0.20;;;2.80;99.90;;;;;;5049547;28;20185;-66
2022/12/10 09:54:00;;;;;;;0.00;0.00;;;2.90;99.90;;;;;;5049631;28;20231;-67
2022/12/10 09:56:30;;;;;;;0.00;0.00;;;2.80;99.90;;;;;;5051688;28;20193;-67
2022/12/10 09:58:59;;;;;;;0.17;0.17;;;2.80;99.90;;;;;;5051383;28;20588;-67
2022/12/10 10:01:28;;;;;;;0.10;0.10;;;2.70;99.90;;;;;;5054014;28;20222;-67
2022/12/10 10:03:54;;;;;;;0.00;0.00;;;2.60;99.90;;;;;;5057096;28;20178;-66
2022/12/10 10:06:23;;;;;;;0.00;0.00;;;2.60;99.90;;;;;;5051795;28;20178;-67
2022/12/10 10:08:53;;;;;;;0.33;0.07;;;2.60;99.90;;;;;;5050788;28;20174;-66
2022/12/10 10:11:27;;;;;;;0.35;0.35;;;2.60;99.90;;;;;;5051401;28;20419;-66
2022/12/10 10:13:57;;;;;;;0.22;0.22;;;2.60;99.90;;;;;;5050208;28;20190;-67
2022/12/10 10:16:31;;;;;;;0.00;0.00;;;2.50;99.90;;;;;;5051518;28;20656;-67
2022/12/10 10:19:11;;;;;;;0.00;0.00;;;2.60;99.90;;;;;;5051070;28;20215;-67
2022/12/10 10:21:41;;;;;;;0.20;0.20;;;2.60;99.90;;;;;;5051374;28;20644;-66
2022/12/10 10:24:14;;;;;;;0.40;0.40;;;2.70;99.90;;;;;;5050980;28;20185;-68
2022/12/10 10:26:40;;;;;;;0.00;0.00;;;2.80;99.90;;;;;;5053930;28;20283;-67
2022/12/10 10:29:11;;;;;;;0.00;0.00;;;2.80;99.90;;;;;;5054940;28;20692;-66
2022/12/10 10:31:40;;;;;;;0.10;0.10;;;2.80;99.90;;;;;;5055476;28;20547;-66
2022/12/10 10:34:15;;;;;;;0.20;0.20;;;2.80;99.90;;;;;;5054309;28;20203;-66
2022/12/10 10:36:41;;;;;;;0.10;0.10;;;2.80;99.90;;;;;;5054983;28;20268;-67
2022/12/10 10:39:16;;;;;;;0.15;0.15;;;2.90;99.90;;;;;;5054631;28;20225;-66
2022/12/10 10:41:42;;;;;;;0.10;0.10;;;3.10;99.90;;;;;;5052732;28;20227;-65
2022/12/10 10:44:22;;;;;;;0.00;0.00;;;3.20;99.90;;;;;;5055119;28;20217;-66
2022/12/10 10:46:50;;;;;;;0.10;0.10;;;3.30;99.90;;;;;;5054866;28;20290;-65
2022/12/10 10:49:29;;;;;;;0.85;0.85;;;3.40;99.90;;;;;;5039394;28;20177;-66
2022/12/10 10:52:11;;;;;;;0.55;0.30;;;3.50;99.90;;;;;;5053637;28;20339;-66
2022/12/10 10:54:39;;;;;;;0.13;0.13;;;3.60;99.90;;;;;;5054801;28;20181;-65
2022/12/10 10:57:31;;;;;;;0.57;0.57;;;3.50;99.90;;;;;;5044111;28;20194;-65
2022/12/10 11:00:04;;;;;;;0.00;0.00;;;3.50;99.90;;;;;;5054787;28;20319;-66
2022/12/10 11:02:34;;;;;;;0.17;0.17;;;3.50;99.90;;;;;;5054682;28;20189;-65
2022/12/10 11:05:07;;;;;;;0.10;0.10;;;3.60;99.90;;;;;;5054343;28;20193;-65
2022/12/10 11:07:34;;;;;;;0.03;0.03;;;3.60;99.90;;;;;;5054343;28;20188;-68
2022/12/10 11:10:02;;;;;;;0.20;0.20;;;3.50;99.90;;;;;;5058352;28;20181;-69
2022/12/10 11:12:39;;;;;;;0.20;0.20;;;3.40;99.90;;;;;;5059197;28;20304;-66
2022/12/10 11:15:24;;;;;;;0.20;0.20;;;3.40;99.90;;;;;;5054356;28;20291;-66
2022/12/10 11:17:53;;;;;;;0.00;0.00;;;3.80;99.90;;;;;;5053277;28;20181;-64
2022/12/10 11:20:25;;;;;;;0.22;0.22;;;3.80;99.90;;;;;;5054120;28;20224;-65
2022/12/10 11:22:55;;;;;;;0.17;0.17;;;3.80;99.90;;;;;;5053590;28;20315;-65
2022/12/10 11:25:38;;;;;;;0.00;0.00;;;3.80;99.90;;;;;;5054023;28;20182;-63
2022/12/10 11:28:17;;;;;;;0.00;0.00;;;3.70;99.90;;;;;;5053392;28;20180;-65
2022/12/10 11:30:58;;;;;;;0.77;0.77;;;3.70;99.90;;;;;;5052202;28;20180;-66
2022/12/10 11:33:35;;;;;;;0.00;0.00;;;3.50;99.90;;;;;;5053989;28;20189;-65
2022/12/10 11:36:22;;;;;;;0.10;0.10;;;3.40;99.90;;;;;;5053384;28;20170;-65
2022/12/10 11:39:02;;;;;;;0.00;0.00;;;3.40;99.90;;;;;;5052727;28;20282;-66
2022/12/10 11:41:38;;;;;;;0.00;0.00;;;3.30;99.90;;;;;;5053447;28;20563;-66
2022/12/10 11:44:10;;;;;;;0.00;0.00;;;3.20;99.90;;;;;;5053419;28;20184;-65
2022/12/10 11:46:57;;;;;;;0.70;0.70;;;3.10;99.90;;;;;;5052936;28;20442;-67
2022/12/10 11:49:34;;;;;;;0.90;0.40;;;3.10;99.90;;;;;;5053331;28;20194;-64
2022/12/10 11:52:14;;;;;;;0.50;0.50;;;3.20;99.90;;;;;;5050688;28;20448;-67
2022/12/10 11:55:14;;;;;;;0.22;0.22;;;3.20;99.90;;;;;;5052434;28;20939;-66
2022/12/10 11:58:03;;;;;;;0.00;0.00;;;3.40;99.90;;;;;;5036066;28;20186;-67
2022/12/10 12:00:58;;;;;;;0.00;0.00;;;3.40;99.90;;;;;;5049683;28;20262;-66
2022/12/10 12:03:37;;;;;;;0.05;0.05;;;3.40;99.90;;;;;;5052410;28;20183;-66
2022/12/10 12:06:26;;;;;;;0.00;0.00;;;3.40;99.90;;;;;;5033690;28;20182;-66
2022/12/10 12:09:10;;;;;;;0.22;0.22;;;3.40;99.90;;;;;;5046897;28;20280;-67
2022/12/10 12:11:55;;;;;;;0.00;0.00;;;3.40;99.90;;;;;;5051469;28;20299;-67
2022/12/10 12:14:39;;;;;;;0.20;0.20;;;3.50;99.90;;;;;;5053478;28;20209;-67
2022/12/10 12:17:25;;;;;;;0.00;0.00;;;3.60;99.90;;;;;;5053558;28;20180;-67
2022/12/10 12:19:57;;;;;;;0.35;0.35;;;3.80;99.90;;;;;;5052720;28;20270;-68
2022/12/10 12:22:27;;;;;;;0.00;0.00;;;3.80;99.90;;;;;;5053356;28;20542;-67
2022/12/10 12:25:00;;;;;;;0.20;0.20;;;3.80;99.90;;;;;;5056243;28;20717;-67
2022/12/10 12:27:41;;;;;;;0.05;0.05;;;3.80;99.90;;;;;;5059997;28;20545;-67
2022/12/10 12:30:16;;;;;;;0.20;0.20;;;3.80;99.90;;;;;;5053642;28;20184;-67
2022/12/10 12:32:57;;;;;;;0.00;0.00;;;3.70;99.90;;;;;;5073034;28;20303;-68
2022/12/10 12:35:42;;;;;;;0.00;0.00;;;3.60;99.90;;;;;;5073096;28;20292;-67
2022/12/10 12:38:50;;;;;;;0.10;0.10;;;3.60;99.90;;;;;;5054079;28;20181;-67
2022/12/10 12:41:30;;;;;;;0.20;0.20;;;3.60;99.90;;;;;;5042645;28;20667;-67
2022/12/10 12:44:21;;;;;;;0.68;0.68;;;3.50;99.90;;;;;;5066920;28;20180;-68
2022/12/10 12:46:49;;;;;;;0.68;0.68;;;3.50;99.90;;;;;;5072773;28;20215;-67
2022/12/10 12:49:15;;;;;;;0.45;0.45;;;3.50;99.90;;;;;;5072540;28;20230;-67
2022/12/10 12:52:01;;;;;;;0.63;0.63;;;3.60;99.90;;;;;;5071549;28;20263;-68
2022/12/10 12:54:26;;;;;;;0.10;0.10;;;3.60;99.90;;;;;;5058403;28;20193;-67
2022/12/10 12:56:55;;;;;;;0.00;0.00;;;3.70;99.90;;;;;;5061490;28;20188;-67
2022/12/10 12:59:40;;;;;;;0.15;0.15;;;3.70;99.90;;;;;;5052725;28;20213;-67
2022/12/10 13:02:42;;;;;;;0.45;0.45;;;3.70;99.90;;;;;;5052662;28;20180;-67
2022/12/10 13:05:26;;;;;;;0.28;0.28;;;3.70;99.90;;;;;;5036675;28;20170;-68
2022/12/10 13:08:18;;;;;;;0.00;0.00;;;3.80;99.90;;;;;;5032771;28;20174;-68
2022/12/10 13:11:14;;;;;;;0.75;0.75;;;3.70;99.90;;;;;;5035993;28;20217;-68
2022/12/10 13:13:41;;;;;;;0.13;0.13;;;3.70;99.90;;;;;;5051839;28;20668;-68
2022/12/10 13:16:36;;;;;;;0.00;0.00;;;3.50;99.90;;;;;;5052464;28;20606;-67
2022/12/10 13:19:28;;;;;;;0.03;0.03;;;3.40;99.90;;;;;;5052045;28;20680;-67
2022/12/10 13:22:10;;;;;;;0.28;0.28;;;3.20;99.90;;;;;;5051733;28;20181;-67
2022/12/10 13:24:37;;;;;;;0.10;0.10;;;3.10;99.90;;;;;;5051064;28;20529;-68